Time;durP1;ratioP1;P1;durP2;ratioP2;P2;SDS_P1;SDS_P2;PMS_P1;PMS_P2;Temp;Humidity;BMP_temperature;BMP_pressure;BME280_temperature;BME280_humidity;BME280_pressure;Samples;Min_cycle;Max_cycle;Signal;HPM_P1;HPM_P2
2022/03/16 00:02:20;;;;;;;9.13;3.95;;;7.70;85.10;;;;;;5018420;28;20025;-69
2022/03/16 00:04:54;;;;;;;10.40;5.13;;;7.60;85.40;;;;;;5021695;28;20120;-70
2022/03/16 00:07:20;;;;;;;9.80;4.93;;;7.50;85.90;;;;;;5017537;28;20033;-69
2022/03/16 00:09:46;;;;;;;10.65;4.90;;;7.40;86.20;;;;;;5019498;28;20040;-70
2022/03/16 00:12:13;;;;;;;11.45;5.25;;;7.30;86.60;;;;;;5021701;28;20025;-69
2022/03/16 00:14:40;;;;;;;14.57;5.60;;;7.30;86.90;;;;;;5021168;28;20032;-69
2022/03/16 00:17:06;;;;;;;16.48;6.07;;;7.10;87.20;;;;;;5020611;28;20038;-69
2022/03/16 00:19:33;;;;;;;14.35;5.35;;;7.10;87.80;;;;;;5021803;28;20740;-70
2022/03/16 00:22:00;;;;;;;12.77;5.35;;;7.00;88.20;;;;;;5021606;28;20083;-70
2022/03/16 00:24:26;;;;;;;11.18;5.10;;;6.90;88.50;;;;;;5021123;28;20099;-70
2022/03/16 00:26:52;;;;;;;11.50;5.35;;;6.80;88.90;;;;;;5021551;28;20029;-69
2022/03/16 00:29:18;;;;;;;12.63;5.68;;;6.80;89.10;;;;;;5019851;28;20478;-70
2022/03/16 00:31:44;;;;;;;11.43;5.75;;;6.80;89.50;;;;;;5027876;28;20032;-69
2022/03/16 00:34:10;;;;;;;12.25;5.63;;;6.70;89.70;;;;;;5019845;28;20032;-69
2022/03/16 00:36:35;;;;;;;12.20;5.53;;;6.60;89.90;;;;;;5019298;28;20033;-70
2022/03/16 00:39:03;;;;;;;11.38;5.47;;;6.60;90.00;;;;;;5019337;28;20485;-71
2022/03/16 00:41:29;;;;;;;11.32;5.05;;;6.60;90.20;;;;;;5020930;28;20296;-70
2022/03/16 00:43:55;;;;;;;13.82;5.70;;;6.50;90.30;;;;;;5021037;28;20041;-69
2022/03/16 00:46:21;;;;;;;10.13;5.75;;;6.50;90.40;;;;;;5020249;28;20040;-69
2022/03/16 00:48:47;;;;;;;11.88;5.28;;;6.40;90.50;;;;;;5020736;28;20048;-69
2022/03/16 00:51:12;;;;;;;14.55;5.45;;;6.30;90.60;;;;;;5019695;28;20036;-70
2022/03/16 00:53:40;;;;;;;12.18;6.22;;;6.30;90.70;;;;;;5018652;28;20796;-70
2022/03/16 00:56:07;;;;;;;12.02;6.05;;;6.20;90.80;;;;;;5020498;28;20068;-69
2022/03/16 00:58:33;;;;;;;14.50;6.32;;;6.20;90.90;;;;;;5020724;28;20053;-70
2022/03/16 01:01:00;;;;;;;15.07;6.13;;;6.20;90.90;;;;;;5028102;28;20067;-70
2022/03/16 01:03:27;;;;;;;10.90;5.28;;;6.20;91.00;;;;;;5020835;28;20037;-69
2022/03/16 01:05:53;;;;;;;12.23;5.68;;;6.10;91.00;;;;;;5018992;28;20029;-69
2022/03/16 01:08:21;;;;;;;11.98;5.53;;;6.10;91.10;;;;;;5018881;28;20064;-70
2022/03/16 01:10:47;;;;;;;10.38;5.18;;;6.00;91.10;;;;;;5024126;28;20045;-70
2022/03/16 01:13:13;;;;;;;15.88;6.75;;;5.90;91.30;;;;;;5024620;28;20035;-69
2022/03/16 01:15:40;;;;;;;12.68;6.15;;;5.90;91.50;;;;;;5023556;28;20033;-69
2022/03/16 01:18:06;;;;;;;13.50;6.32;;;5.90;91.60;;;;;;5031210;28;20051;-69
2022/03/16 01:20:32;;;;;;;12.95;6.15;;;5.80;91.70;;;;;;5024447;28;20033;-69
2022/03/16 01:22:58;;;;;;;14.93;6.25;;;5.80;91.80;;;;;;5023813;28;20031;-70
2022/03/16 01:25:24;;;;;;;13.50;6.68;;;5.70;92.00;;;;;;5023827;28;20167;-69
2022/03/16 01:27:50;;;;;;;16.02;6.75;;;5.70;92.10;;;;;;5031345;28;20032;-70
2022/03/16 01:30:16;;;;;;;14.77;6.70;;;5.70;92.10;;;;;;5024007;28;20128;-69
2022/03/16 01:32:42;;;;;;;12.77;6.15;;;5.70;92.10;;;;;;5022206;28;20025;-70
2022/03/16 01:35:09;;;;;;;11.27;6.07;;;5.70;92.20;;;;;;5030010;28;20026;-69
2022/03/16 01:37:36;;;;;;;19.08;7.38;;;5.60;92.20;;;;;;5023553;28;20029;-70
2022/03/16 01:40:04;;;;;;;15.02;6.93;;;5.60;92.30;;;;;;5024058;28;20037;-68
2022/03/16 01:42:29;;;;;;;16.00;6.05;;;5.60;92.30;;;;;;5024284;28;20026;-69
2022/03/16 01:44:57;;;;;;;14.63;6.65;;;5.50;92.30;;;;;;5023340;28;20520;-70
2022/03/16 01:47:24;;;;;;;14.82;6.72;;;5.50;92.40;;;;;;5023884;28;20042;-69
2022/03/16 01:49:53;;;;;;;14.60;7.20;;;5.50;92.60;;;;;;5023022;28;20025;-69
2022/03/16 01:52:27;;;;;;;12.45;5.95;;;5.40;92.60;;;;;;5021989;28;20031;-69
2022/03/16 01:54:54;;;;;;;11.88;6.00;;;5.40;92.70;;;;;;5020888;28;20112;-70
2022/03/16 01:57:23;;;;;;;13.98;6.70;;;5.40;92.80;;;;;;5021973;28;20029;-69
2022/03/16 01:59:48;;;;;;;16.00;7.85;;;5.30;92.80;;;;;;5022125;28;20033;-69
2022/03/16 02:02:15;;;;;;;19.52;7.15;;;5.30;92.90;;;;;;5022002;28;20145;-69
2022/03/16 02:04:42;;;;;;;15.38;7.50;;;5.30;93.00;;;;;;5021324;28;20033;-70
2022/03/16 02:07:08;;;;;;;12.38;6.55;;;5.30;93.00;;;;;;5022224;28;20038;-70
2022/03/16 02:09:34;;;;;;;12.23;7.00;;;5.30;93.00;;;;;;5021834;28;20080;-68
2022/03/16 02:12:00;;;;;;;14.30;6.93;;;5.20;93.00;;;;;;5023074;28;20036;-69
2022/03/16 02:14:26;;;;;;;13.27;6.53;;;5.20;93.00;;;;;;5022969;28;20037;-71
2022/03/16 02:16:52;;;;;;;12.70;6.60;;;5.20;93.10;;;;;;5020358;28;20029;-70
2022/03/16 02:19:17;;;;;;;14.70;7.03;;;5.20;93.20;;;;;;5021822;28;20091;-69
2022/03/16 02:21:49;;;;;;;17.50;7.45;;;5.20;93.30;;;;;;5021986;28;20052;-69
2022/03/16 02:24:14;;;;;;;13.43;6.57;;;5.10;93.40;;;;;;5021212;28;20036;-70
2022/03/16 07:25:56;;;;;;;36.72;19.73;;;8.60;87.60;;;;;;5017025;28;20068;-71
2022/03/16 07:28:22;;;;;;;51.92;28.92;;;10.10;83.00;;;;;;5021893;28;20441;-70
2022/03/16 07:30:48;;;;;;;47.72;28.52;;;10.60;80.90;;;;;;5021451;28;20136;-72
2022/03/16 07:33:14;;;;;;;47.72;28.70;;;11.40;77.40;;;;;;5021269;28;20018;-71
2022/03/16 07:35:40;;;;;;;40.38;28.35;;;12.60;71.80;;;;;;5021575;28;20113;-70
2022/03/16 07:38:07;;;;;;;28.05;14.60;;;14.70;65.60;;;;;;5021577;28;20124;-70
2022/03/16 07:40:35;;;;;;;24.27;12.93;;;17.30;55.80;;;;;;5021454;28;20044;-70
2022/03/16 07:43:03;;;;;;;17.98;10.45;;;20.20;48.40;;;;;;5021704;28;20120;-69
2022/03/16 07:45:29;;;;;;;21.15;10.38;;;22.90;41.90;;;;;;5021052;28;20037;-68
2022/03/16 07:47:58;;;;;;;19.27;10.02;;;25.00;37.80;;;;;;5021538;28;20909;-69
2022/03/16 07:50:25;;;;;;;19.92;10.60;;;26.40;34.20;;;;;;5021700;28;20739;-69
2022/03/16 07:52:53;;;;;;;18.45;10.00;;;27.20;33.30;;;;;;5023093;28;20061;-68
2022/03/16 07:55:18;;;;;;;17.80;11.13;;;27.20;32.90;;;;;;5020244;28;20141;-69
2022/03/16 07:57:44;;;;;;;18.33;11.68;;;27.10;32.90;;;;;;5021720;28;20509;-70
2022/03/16 08:00:11;;;;;;;16.63;10.10;;;27.60;31.90;;;;;;5021452;28;20524;-69
2022/03/16 08:02:38;;;;;;;17.27;10.40;;;28.80;31.30;;;;;;5021228;28;20026;-69
2022/03/16 08:05:05;;;;;;;14.73;9.48;;;30.20;29.70;;;;;;5020931;28;20044;-70
2022/03/16 08:07:31;;;;;;;13.98;8.77;;;30.80;29.20;;;;;;5021578;28;20044;-69
2022/03/16 08:09:58;;;;;;;15.25;9.80;;;30.30;28.80;;;;;;5021126;28;20128;-69
2022/03/16 08:12:24;;;;;;;16.63;9.60;;;29.70;29.40;;;;;;5021531;28;20505;-70
2022/03/16 08:14:50;;;;;;;16.58;11.02;;;28.60;30.30;;;;;;5021260;28;20063;-70
2022/03/16 08:17:16;;;;;;;18.95;11.13;;;27.70;30.70;;;;;;5017074;28;20025;-69
2022/03/16 08:19:42;;;;;;;17.95;11.00;;;26.60;32.30;;;;;;5021097;28;20103;-68
2022/03/16 08:22:08;;;;;;;18.00;10.80;;;25.20;33.90;;;;;;5021189;28;20033;-69
2022/03/16 08:24:33;;;;;;;16.63;10.52;;;23.60;36.50;;;;;;5021253;28;20052;-69
2022/03/16 08:26:59;;;;;;;20.38;10.85;;;22.40;38.90;;;;;;5021273;28;20069;-70
2022/03/16 08:29:25;;;;;;;15.75;10.13;;;21.50;40.20;;;;;;5019891;28;20083;-69
2022/03/16 08:31:50;;;;;;;18.00;11.25;;;20.90;41.50;;;;;;5021012;28;20057;-69
2022/03/16 08:34:18;;;;;;;18.85;10.68;;;21.40;41.80;;;;;;5022376;28;20028;-69
2022/03/16 08:36:44;;;;;;;19.42;10.70;;;21.70;40.50;;;;;;5020834;28;20046;-70
2022/03/16 08:39:10;;;;;;;19.05;11.38;;;22.10;40.00;;;;;;5020934;28;20441;-69
2022/03/16 08:41:36;;;;;;;19.38;11.05;;;22.70;38.50;;;;;;5025146;28;20036;-70
2022/03/16 08:44:02;;;;;;;18.92;10.70;;;23.20;37.10;;;;;;5017277;28;20037;-68
2022/03/16 08:46:29;;;;;;;23.33;12.38;;;23.40;36.30;;;;;;5020589;28;20060;-68
2022/03/16 08:48:55;;;;;;;18.73;11.10;;;23.00;36.50;;;;;;5021915;28;20083;-70
2022/03/16 08:51:21;;;;;;;20.25;11.48;;;22.20;38.50;;;;;;5021958;28;20470;-70
2022/03/16 08:53:46;;;;;;;19.25;11.88;;;21.90;39.10;;;;;;5022401;28;20024;-69
2022/03/16 08:56:13;;;;;;;22.08;11.02;;;21.40;40.30;;;;;;5020535;28;20038;-69
2022/03/16 08:58:39;;;;;;;18.75;11.18;;;20.10;42.10;;;;;;5021695;28;20037;-69
2022/03/16 09:01:05;;;;;;;20.55;11.68;;;20.10;42.80;;;;;;5020840;28;20456;-69
2022/03/16 09:03:31;;;;;;;20.73;10.60;;;22.70;38.30;;;;;;5020007;28;20596;-69
2022/03/16 09:05:59;;;;;;;18.08;10.73;;;25.00;35.10;;;;;;5020362;28;20049;-69
2022/03/16 09:08:24;;;;;;;17.42;10.73;;;26.40;33.00;;;;;;5017178;28;20144;-69
2022/03/16 09:10:50;;;;;;;17.63;11.25;;;27.40;32.70;;;;;;5020825;28;20660;-70
2022/03/16 09:13:17;;;;;;;19.48;10.13;;;28.60;29.70;;;;;;5021521;28;20029;-68
2022/03/16 09:15:44;;;;;;;18.45;10.93;;;30.50;28.50;;;;;;5020500;28;20037;-70
2022/03/16 09:18:10;;;;;;;15.40;9.95;;;31.40;27.90;;;;;;5017530;28;20048;-71
2022/03/16 09:20:39;;;;;;;15.95;10.38;;;32.80;27.10;;;;;;5021109;28;20021;-70
2022/03/16 09:23:05;;;;;;;21.38;11.50;;;33.80;25.60;;;;;;5018717;28;20037;-70
2022/03/16 09:25:32;;;;;;;21.33;11.20;;;32.90;25.60;;;;;;5019838;28;20127;-69
2022/03/16 09:27:58;;;;;;;15.05;9.77;;;31.90;26.20;;;;;;5019957;28;20120;-70
2022/03/16 09:30:24;;;;;;;17.02;11.15;;;30.50;27.50;;;;;;5021511;28;20033;-70
2022/03/16 09:32:54;;;;;;;15.98;9.60;;;28.20;28.80;;;;;;5023911;28;20030;-70
2022/03/16 09:35:20;;;;;;;17.98;10.38;;;26.20;30.40;;;;;;5023997;28;20028;-71
2022/03/16 09:37:46;;;;;;;16.35;9.15;;;24.20;33.20;;;;;;5024268;28;20033;-69
2022/03/16 09:40:12;;;;;;;14.52;8.90;;;22.10;36.50;;;;;;5023933;28;20504;-70
2022/03/16 09:42:39;;;;;;;15.88;9.88;;;20.40;39.60;;;;;;5023927;28;20033;-70
2022/03/16 09:45:07;;;;;;;13.82;7.53;;;19.10;42.10;;;;;;5023301;28;20041;-69
2022/03/16 09:47:34;;;;;;;14.13;7.05;;;18.60;41.80;;;;;;5023318;28;20036;-70
2022/03/16 09:50:00;;;;;;;14.80;9.07;;;19.00;41.10;;;;;;5022595;28;20498;-68
2022/03/16 09:52:26;;;;;;;14.70;7.03;;;20.00;40.20;;;;;;5023527;28;20036;-69
2022/03/16 09:54:55;;;;;;;14.52;7.20;;;19.40;39.70;;;;;;5023154;28;20064;-69
2022/03/16 09:57:21;;;;;;;16.45;7.68;;;18.80;41.90;;;;;;5021387;28;20492;-68
2022/03/16 09:59:47;;;;;;;14.70;7.63;;;18.80;42.70;;;;;;5022675;28;20025;-69
2022/03/16 10:02:17;;;;;;;15.88;7.30;;;20.80;38.90;;;;;;5022350;28;20072;-68
2022/03/16 10:04:46;;;;;;;14.93;7.55;;;24.10;34.70;;;;;;5023083;28;20037;-69
2022/03/16 10:07:11;;;;;;;12.63;7.15;;;26.60;31.10;;;;;;5018337;28;20072;-69
2022/03/16 10:15:18;;;;;;;18.58;7.97;;;29.00;28.10;;;;;;5021385;28;20123;-68
2022/03/16 10:17:57;;;;;;;14.32;7.75;;;29.30;27.60;;;;;;5023040;28;20083;-68
2022/03/16 10:20:34;;;;;;;11.68;6.97;;;28.90;27.60;;;;;;5022731;28;20065;-69
2022/03/16 10:23:07;;;;;;;15.25;8.48;;;25.90;29.50;;;;;;5022894;28;20082;-69
2022/03/16 10:25:38;;;;;;;13.02;6.70;;;26.30;30.50;;;;;;5021708;28;20060;-68
2022/03/16 10:28:10;;;;;;;11.77;7.40;;;29.10;28.60;;;;;;5022976;28;20029;-68
2022/03/16 10:31:01;;;;;;;13.88;6.68;;;30.10;27.00;;;;;;5022389;28;20029;-69
2022/03/16 10:33:36;;;;;;;10.80;6.78;;;27.70;28.30;;;;;;5015791;28;20049;-70
2022/03/16 10:36:04;;;;;;;12.27;6.70;;;27.00;29.80;;;;;;5022148;28;20048;-72
2022/03/16 10:38:39;;;;;;;13.88;6.82;;;30.50;27.50;;;;;;5022902;28;20691;-69
2022/03/16 10:47:15;;;;;;;11.82;6.45;;;27.50;29.00;;;;;;5036804;28;20091;-69
2022/03/16 10:49:42;;;;;;;16.33;7.80;;;29.40;27.20;;;;;;5023539;28;20037;-69
2022/03/16 10:52:17;;;;;;;12.48;6.97;;;27.10;28.30;;;;;;5019471;28;20021;-70
2022/03/16 10:54:45;;;;;;;12.13;7.13;;;26.60;30.00;;;;;;5023068;28;20132;-70
2022/03/16 10:57:14;;;;;;;14.95;7.22;;;28.30;28.90;;;;;;5021969;28;20072;-70
2022/03/16 10:59:43;;;;;;;12.68;7.22;;;29.10;28.00;;;;;;5022620;28;20025;-70
2022/03/16 11:02:12;;;;;;;14.13;7.57;;;31.30;26.90;;;;;;5021996;28;20037;-70
2022/03/16 11:04:45;;;;;;;11.63;7.00;;;34.10;24.90;;;;;;5022515;28;20029;-70
2022/03/16 11:07:12;;;;;;;12.65;5.85;;;33.40;24.30;;;;;;5019087;28;20033;-70
2022/03/16 11:09:39;;;;;;;12.15;6.75;;;33.20;24.80;;;;;;5022319;28;20182;-70
2022/03/16 11:14:52;;;;;;;12.93;7.65;;;32.80;25.00;;;;;;5019535;28;20025;-71
2022/03/16 11:17:19;;;;;;;10.63;6.13;;;34.20;24.30;;;;;;5021786;28;20485;-71
2022/03/16 11:19:48;;;;;;;9.15;5.43;;;32.80;24.80;;;;;;5023073;28;20048;-69
2022/03/16 11:22:21;;;;;;;11.07;6.18;;;28.70;26.90;;;;;;5021482;28;20060;-70
2022/03/16 11:24:51;;;;;;;13.60;7.32;;;24.90;30.60;;;;;;5021798;28;20025;-71
2022/03/16 11:27:20;;;;;;;12.50;6.90;;;22.30;35.20;;;;;;5020966;28;20112;-71
2022/03/16 11:30:01;;;;;;;16.98;8.15;;;20.50;38.80;;;;;;5021599;28;20060;-70
2022/03/16 11:32:36;;;;;;;12.55;8.63;;;18.90;41.10;;;;;;5019982;28;20032;-69
2022/03/16 11:35:06;;;;;;;15.48;8.18;;;18.10;44.10;;;;;;5021364;28;20069;-70
2022/03/16 11:37:43;;;;;;;16.13;8.65;;;17.60;45.60;;;;;;5016309;28;20060;-68
2022/03/16 11:40:14;;;;;;;14.68;8.05;;;17.30;46.50;;;;;;5018960;28;20469;-69
2022/03/16 11:43:14;;;;;;;16.70;9.27;;;17.30;47.30;;;;;;5019365;28;20029;-75
2022/03/16 11:45:50;;;;;;;17.17;8.90;;;17.00;47.20;;;;;;5013576;28;20045;-74
2022/03/16 11:48:37;;;;;;;17.38;9.10;;;16.60;47.20;;;;;;5019913;28;20033;-75
2022/03/16 11:51:08;;;;;;;16.58;9.77;;;16.40;48.20;;;;;;5020817;28;20041;-69
2022/03/16 11:53:57;;;;;;;16.35;9.15;;;16.40;48.60;;;;;;5020525;28;20029;-69
2022/03/16 11:56:43;;;;;;;18.15;9.75;;;16.40;49.40;;;;;;5018798;28;20038;-69
2022/03/16 11:59:18;;;;;;;17.58;8.98;;;16.30;49.10;;;;;;5017988;28;20044;-69
2022/03/16 12:01:50;;;;;;;16.40;9.48;;;16.10;48.90;;;;;;5021139;28;20034;-68
2022/03/16 12:04:29;;;;;;;15.32;8.68;;;15.70;50.80;;;;;;5020571;28;20033;-68
2022/03/16 12:07:01;;;;;;;15.27;8.38;;;15.40;51.40;;;;;;5019732;28;20124;-71
2022/03/16 12:09:39;;;;;;;15.77;8.82;;;15.10;51.50;;;;;;5020289;28;20041;-72
2022/03/16 12:12:51;;;;;;;16.05;8.27;;;15.20;52.30;;;;;;5034390;28;20900;-69
2022/03/16 12:15:29;;;;;;;20.23;9.63;;;15.30;51.80;;;;;;5020600;28;20041;-70
2022/03/16 12:17:58;;;;;;;15.18;8.30;;;15.10;53.00;;;;;;5020242;28;20037;-69
2022/03/16 12:20:30;;;;;;;14.65;8.63;;;15.20;52.80;;;;;;5019247;28;20032;-69
2022/03/16 12:23:01;;;;;;;15.93;8.43;;;15.20;53.00;;;;;;5018888;28;20108;-69
2022/03/16 12:25:29;;;;;;;14.70;8.50;;;15.00;52.70;;;;;;5020150;28;20069;-63
2022/03/16 12:30:55;;;;;;;15.80;8.20;;;14.80;53.60;;;;;;5018778;28;20840;-64
2022/03/16 12:33:25;;;;;;;14.55;8.32;;;14.80;54.10;;;;;;5020356;28;20136;-63
2022/03/16 12:35:58;;;;;;;14.38;8.50;;;14.90;53.80;;;;;;5017725;28;20033;-63
2022/03/16 12:38:26;;;;;;;14.93;7.65;;;14.70;54.30;;;;;;5020193;28;20434;-63
2022/03/16 12:43:37;;;;;;;14.18;7.80;;;14.30;54.40;;;;;;5016993;28;20067;-62
2022/03/16 12:46:08;;;;;;;15.73;8.50;;;14.40;55.00;;;;;;5020649;28;20038;-64
2022/03/16 12:48:36;;;;;;;13.75;8.10;;;14.40;54.90;;;;;;5019933;28;20029;-63
2022/03/16 12:51:02;;;;;;;14.60;8.48;;;14.40;55.00;;;;;;5019198;28;20038;-63
2022/03/16 12:53:44;;;;;;;15.32;8.10;;;14.30;54.90;;;;;;5020120;28;20017;-63
2022/03/16 12:56:17;;;;;;;18.83;9.43;;;14.40;55.00;;;;;;5018754;28;20026;-63
2022/03/16 12:58:54;;;;;;;14.30;8.25;;;14.40;54.50;;;;;;5015185;28;20569;-64
2022/03/16 13:01:21;;;;;;;14.88;8.60;;;14.40;54.30;;;;;;5018259;28;20100;-66
2022/03/16 13:03:50;;;;;;;15.63;8.68;;;14.30;54.80;;;;;;5020235;28;20513;-63
2022/03/16 13:06:18;;;;;;;15.57;8.50;;;14.40;54.90;;;;;;5022649;28;20040;-63
2022/03/16 13:08:49;;;;;;;16.48;9.90;;;14.40;55.40;;;;;;5024325;28;20052;-62
2022/03/16 13:11:28;;;;;;;16.80;8.57;;;14.50;55.50;;;;;;5020921;28;20037;-63
2022/03/16 13:14:12;;;;;;;18.10;9.23;;;14.30;55.70;;;;;;5023465;28;20026;-63
2022/03/16 13:16:42;;;;;;;15.70;9.13;;;14.20;55.60;;;;;;5019702;28;20049;-62
2022/03/16 13:19:25;;;;;;;15.18;8.43;;;14.20;55.30;;;;;;5024356;28;20156;-63
2022/03/16 13:22:10;;;;;;;13.23;8.23;;;14.20;54.60;;;;;;5021422;28;20096;-63
2022/03/16 13:24:41;;;;;;;16.65;8.05;;;14.10;53.60;;;;;;5020987;28;20128;-64
2022/03/16 13:27:08;;;;;;;13.88;8.45;;;14.10;54.10;;;;;;5023076;28;20124;-70
2022/03/16 13:29:37;;;;;;;14.48;8.52;;;14.20;53.90;;;;;;5024294;28;20021;-65
2022/03/16 13:32:05;;;;;;;14.63;8.43;;;14.30;54.50;;;;;;5023962;28;20063;-64
2022/03/16 13:34:38;;;;;;;15.75;8.40;;;14.50;53.50;;;;;;5024345;28;20773;-69
2022/03/16 13:37:25;;;;;;;16.55;8.85;;;14.70;53.70;;;;;;5021130;28;20038;-63
2022/03/16 13:40:06;;;;;;;13.23;7.93;;;14.80;52.20;;;;;;5023030;28;20132;-63
2022/03/16 13:42:33;;;;;;;13.07;8.38;;;14.80;52.40;;;;;;5022031;28;20087;-65
2022/03/16 13:45:20;;;;;;;15.70;9.15;;;14.80;51.00;;;;;;5019698;28;20061;-64
2022/03/16 13:47:47;;;;;;;;;;;14.80;51.80;;;;;;5022539;28;20220;-64
2022/03/16 13:50:25;;;;;;;14.23;7.82;;;14.60;51.50;;;;;;5023723;28;20799;-68
2022/03/16 13:52:54;;;;;;;17.17;8.57;;;14.70;52.00;;;;;;5021479;28;20052;-63
2022/03/16 13:55:21;;;;;;;14.05;8.07;;;14.80;51.10;;;;;;5023923;28;20510;-64
2022/03/16 13:57:48;;;;;;;14.38;8.85;;;15.00;51.70;;;;;;5023491;28;20036;-64
2022/03/16 14:00:16;;;;;;;13.77;8.25;;;15.00;50.80;;;;;;5026535;28;20061;-64
2022/03/16 14:02:43;;;;;;;16.67;8.50;;;15.00;50.90;;;;;;5024148;28;20033;-65
2022/03/16 14:05:15;;;;;;;15.48;8.93;;;15.00;51.30;;;;;;5023062;28;20069;-64
2022/03/16 14:07:46;;;;;;;17.25;9.20;;;15.00;51.00;;;;;;5025728;28;20049;-64
2022/03/16 14:10:16;;;;;;;12.98;8.32;;;15.10;50.80;;;;;;5021745;28;20025;-64
2022/03/16 14:12:42;;;;;;;14.55;8.48;;;15.10;50.90;;;;;;5023026;28;20090;-64
2022/03/16 14:15:18;;;;;;;12.48;8.13;;;15.20;50.50;;;;;;5020355;28;20508;-64
2022/03/16 14:17:54;;;;;;;;;;;15.20;49.60;;;;;;5018971;28;20076;-63
2022/03/16 14:20:25;;;;;;;14.52;9.35;;;15.30;50.00;;;;;;5021069;28;19913;-64
2022/03/16 14:22:52;;;;;;;13.27;8.88;;;15.20;51.10;;;;;;5022119;28;20793;-64
2022/03/16 14:25:28;;;;;;;13.52;8.10;;;15.00;50.70;;;;;;5022100;28;20041;-66
2022/03/16 14:27:56;;;;;;;13.02;8.38;;;14.90;50.90;;;;;;5020121;28;20037;-72
2022/03/16 14:30:24;;;;;;;15.95;9.10;;;14.80;51.00;;;;;;5023008;28;20060;-64
2022/03/16 14:32:52;;;;;;;12.73;8.20;;;14.90;50.60;;;;;;5021247;28;20040;-66
2022/03/16 14:35:20;;;;;;;14.98;9.05;;;14.80;50.80;;;;;;5022158;28;20038;-65
2022/03/16 14:37:49;;;;;;;15.55;8.90;;;14.80;51.00;;;;;;5019508;28;20103;-65
2022/03/16 14:40:18;;;;;;;14.02;8.07;;;14.70;51.30;;;;;;5021847;28;20039;-65
2022/03/16 14:42:46;;;;;;;13.57;8.52;;;14.50;51.10;;;;;;5021261;28;20120;-66
2022/03/16 14:45:12;;;;;;;13.90;8.50;;;14.40;50.80;;;;;;5020146;28;20029;-65
2022/03/16 14:47:37;;;;;;;13.02;7.78;;;14.30;51.10;;;;;;5023043;28;20516;-65
2022/03/16 14:50:04;;;;;;;11.65;8.00;;;14.30;50.10;;;;;;5021473;28;20036;-64
2022/03/16 14:52:30;;;;;;;12.95;7.50;;;14.30;50.50;;;;;;5024031;28;20111;-64
2022/03/16 14:54:58;;;;;;;12.80;7.07;;;14.30;50.20;;;;;;5021943;28;20112;-65
2022/03/16 14:57:24;;;;;;;14.25;8.27;;;14.20;49.30;;;;;;5021121;28;20040;-65
2022/03/16 14:59:52;;;;;;;11.70;7.45;;;14.00;48.70;;;;;;5022271;28;20038;-66
2022/03/16 15:02:18;;;;;;;14.10;7.65;;;14.00;49.00;;;;;;5021727;28;20048;-65
2022/03/16 15:04:45;;;;;;;12.23;7.60;;;13.90;49.00;;;;;;5020572;28;20063;-66
2022/03/16 15:07:11;;;;;;;12.75;7.40;;;14.00;49.50;;;;;;5019204;28;20037;-66
2022/03/16 15:09:38;;;;;;;19.30;9.98;;;14.00;49.20;;;;;;5021950;28;20041;-66
2022/03/16 15:12:07;;;;;;;15.25;8.52;;;14.00;49.50;;;;;;5020853;28;20063;-66
2022/03/16 15:14:33;;;;;;;15.65;8.55;;;14.00;49.80;;;;;;5018380;28;20507;-67
2022/03/16 15:16:59;;;;;;;16.63;9.43;;;14.00;49.80;;;;;;5021176;28;20029;-67
2022/03/16 15:19:24;;;;;;;16.23;9.63;;;13.90;49.30;;;;;;5021434;28;20041;-66
2022/03/16 15:21:50;;;;;;;15.75;9.30;;;13.80;49.20;;;;;;5021783;28;20026;-67
2022/03/16 15:24:16;;;;;;;14.60;8.68;;;13.80;49.10;;;;;;5020411;28;20045;-66
2022/03/16 15:26:42;;;;;;;15.60;8.80;;;13.70;49.30;;;;;;5019882;28;20032;-66
2022/03/16 15:29:10;;;;;;;23.58;13.00;;;13.70;49.10;;;;;;5019085;28;20711;-65
2022/03/16 15:31:37;;;;;;;19.05;9.90;;;13.80;49.60;;;;;;5020456;28;20091;-66
2022/03/16 15:34:06;;;;;;;13.70;8.18;;;13.80;48.60;;;;;;5020534;28;20136;-67
2022/03/16 15:36:32;;;;;;;13.57;8.10;;;13.70;47.70;;;;;;5031511;28;20057;-74
2022/03/16 15:38:57;;;;;;;15.57;7.25;;;13.70;46.20;;;;;;5020267;28;20171;-72
2022/03/16 15:44:07;;;;;;;14.25;7.80;;;13.50;45.30;;;;;;5024006;28;20694;-65
2022/03/16 15:46:33;;;;;;;13.07;7.60;;;13.40;45.20;;;;;;5020366;28;20033;-65
2022/03/16 15:48:59;;;;;;;13.07;7.75;;;13.30;45.30;;;;;;5025783;28;20022;-65
2022/03/16 15:51:26;;;;;;;13.70;7.82;;;13.40;46.30;;;;;;5024510;28;20029;-72
2022/03/16 15:53:52;;;;;;;15.98;8.32;;;13.20;46.00;;;;;;5020171;28;20064;-65
2022/03/16 15:56:18;;;;;;;14.40;8.45;;;13.20;46.40;;;;;;5019157;28;20037;-66
2022/03/16 15:58:44;;;;;;;17.08;8.80;;;13.20;46.50;;;;;;5020253;28;20079;-66
2022/03/16 16:01:10;;;;;;;18.95;8.43;;;13.20;46.90;;;;;;5022805;28;20091;-66
2022/03/16 16:03:37;;;;;;;15.80;9.43;;;13.10;47.10;;;;;;5019505;28;20036;-65
2022/03/16 16:06:04;;;;;;;16.08;8.50;;;13.10;46.70;;;;;;5017170;28;20041;-65
2022/03/16 16:08:31;;;;;;;17.50;9.88;;;13.10;46.90;;;;;;5020259;28;20432;-66
2022/03/16 16:11:09;;;;;;;14.77;8.57;;;13.00;47.20;;;;;;5019666;28;20125;-66
2022/03/16 16:13:40;;;;;;;18.58;10.43;;;13.00;47.70;;;;;;5021117;28;20025;-67
2022/03/16 16:16:07;;;;;;;18.27;10.90;;;13.00;48.00;;;;;;5020530;28;20036;-65
2022/03/16 16:18:34;;;;;;;20.27;11.23;;;12.90;48.60;;;;;;5020147;28;20049;-65
2022/03/16 16:20:59;;;;;;;20.85;10.77;;;12.90;49.00;;;;;;5019201;28;20717;-66
2022/03/16 16:23:26;;;;;;;18.55;10.90;;;12.80;49.40;;;;;;5020829;28;20037;-66
2022/03/16 16:25:52;;;;;;;19.88;11.55;;;12.80;50.40;;;;;;5019819;28;20110;-66
2022/03/16 16:28:23;;;;;;;20.83;11.98;;;12.70;51.20;;;;;;5021156;28;20048;-65
2022/03/16 16:30:53;;;;;;;26.10;12.70;;;12.70;52.10;;;;;;5020483;28;20037;-65
2022/03/16 16:33:20;;;;;;;29.35;13.73;;;12.70;52.80;;;;;;5020445;28;20087;-65
2022/03/16 16:35:46;;;;;;;23.75;13.30;;;12.50;53.70;;;;;;5020097;28;20033;-64
2022/03/16 16:38:13;;;;;;;25.52;13.70;;;12.40;54.20;;;;;;5016559;28;20030;-65
2022/03/16 16:40:44;;;;;;;22.95;12.18;;;12.40;54.30;;;;;;5018554;28;20033;-64
2022/03/16 16:43:13;;;;;;;25.08;13.40;;;12.30;54.70;;;;;;5023645;28;20018;-66
2022/03/16 16:45:47;;;;;;;24.63;12.35;;;12.20;55.20;;;;;;5023240;28;20029;-64
2022/03/16 16:48:22;;;;;;;23.35;12.05;;;12.10;55.20;;;;;;5024439;28;20548;-65
2022/03/16 16:50:50;;;;;;;19.27;10.95;;;12.00;55.50;;;;;;5024994;28;20432;-65
2022/03/16 16:53:18;;;;;;;20.95;10.57;;;11.90;54.70;;;;;;5024432;28;20029;-65
2022/03/16 16:55:44;;;;;;;20.30;10.55;;;11.70;54.70;;;;;;5023758;28;20029;-64
2022/03/16 16:58:10;;;;;;;17.63;9.85;;;11.60;55.30;;;;;;5026397;28;20070;-65
2022/03/16 17:00:39;;;;;;;17.67;10.40;;;11.50;55.00;;;;;;5026793;28;20673;-66
2022/03/16 17:03:06;;;;;;;19.40;10.82;;;11.50;55.60;;;;;;5026139;28;20052;-66
2022/03/16 17:05:32;;;;;;;20.85;11.07;;;11.40;56.70;;;;;;5026804;28;20040;-64
2022/03/16 17:07:58;;;;;;;17.33;10.35;;;11.20;58.00;;;;;;5026162;28;20025;-63
2022/03/16 17:10:26;;;;;;;18.08;10.85;;;11.20;58.60;;;;;;5027044;28;20025;-64
2022/03/16 17:12:52;;;;;;;19.65;10.90;;;11.10;59.70;;;;;;5026380;28;20033;-64
2022/03/16 17:15:18;;;;;;;20.85;11.88;;;11.00;60.60;;;;;;5025281;28;20037;-64
2022/03/16 17:17:49;;;;;;;18.02;10.23;;;10.90;61.70;;;;;;5024588;28;20068;-63
2022/03/16 17:20:26;;;;;;;17.73;9.77;;;10.80;61.60;;;;;;5026516;28;20049;-63
2022/03/16 17:22:57;;;;;;;20.23;11.82;;;10.80;61.90;;;;;;5030000;28;20025;-63
2022/03/16 17:25:24;;;;;;;20.05;11.32;;;10.80;62.00;;;;;;5026093;28;20032;-64
2022/03/16 17:27:54;;;;;;;22.60;12.35;;;10.70;62.30;;;;;;5026095;28;20039;-64
2022/03/16 17:30:20;;;;;;;17.73;10.70;;;10.60;63.00;;;;;;5022122;28;20474;-64
2022/03/16 17:32:53;;;;;;;19.52;11.50;;;10.60;63.00;;;;;;5026096;28;20533;-64
2022/03/16 17:35:24;;;;;;;20.42;11.75;;;10.60;63.60;;;;;;5025491;28;20029;-64
2022/03/16 17:37:51;;;;;;;20.33;11.50;;;10.50;65.00;;;;;;5025609;28;20025;-64
2022/03/16 17:40:18;;;;;;;22.65;13.05;;;10.50;65.90;;;;;;5023407;28;20033;-65
2022/03/16 17:45:32;;;;;;;22.73;12.20;;;10.50;67.20;;;;;;5024900;28;20029;-65
2022/03/16 17:48:13;;;;;;;21.52;12.43;;;10.50;68.20;;;;;;5024485;28;20172;-64
2022/03/16 17:50:43;;;;;;;25.08;13.65;;;10.40;68.90;;;;;;5025079;28;20918;-64
2022/03/16 17:53:14;;;;;;;21.25;11.98;;;10.40;69.50;;;;;;5024046;28;20025;-65
2022/03/16 17:58:26;;;;;;;23.13;13.07;;;10.40;70.30;;;;;;5024144;28;20037;-65
2022/03/16 18:00:52;;;;;;;23.52;12.98;;;10.40;71.10;;;;;;5024905;28;20748;-66
2022/03/16 18:03:19;;;;;;;24.52;13.07;;;10.30;71.60;;;;;;5025574;28;20033;-66
2022/03/16 18:05:45;;;;;;;28.42;14.52;;;10.30;72.50;;;;;;5024219;28;20535;-65
2022/03/16 18:08:12;;;;;;;25.38;13.23;;;10.20;73.80;;;;;;5022740;28;20036;-66
2022/03/16 18:13:31;;;;;;;22.90;14.13;;;10.10;75.00;;;;;;5024702;28;20044;-66
2022/03/16 18:16:01;;;;;;;28.27;15.30;;;10.00;75.40;;;;;;5023902;28;20572;-65